createdAt,value
2019-06-07T08:42:24.937Z,17.70
2019-06-07T08:44:54.292Z,17.70
2019-06-07T08:47:22.890Z,17.50
2019-06-07T08:49:56.212Z,17.30
2019-06-07T08:52:23.016Z,17.20
2019-06-07T08:54:54.201Z,17.00
2019-06-07T08:57:23.141Z,17.00
2019-06-07T08:59:53.593Z,17.10
2019-06-07T09:02:25.652Z,17.20
2019-06-07T09:04:57.083Z,17.20
2019-06-07T09:07:25.435Z,17.20
2019-06-07T09:10:01.853Z,17.20
2019-06-07T09:12:25.626Z,17.30
2019-06-07T09:15:09.036Z,17.30
2019-06-07T09:17:26.079Z,17.30
2019-06-07T09:19:56.222Z,17.40
2019-06-07T09:22:26.207Z,17.50
2019-06-07T09:25:04.316Z,17.60
2019-06-07T09:27:27.050Z,17.70
2019-06-07T09:30:04.752Z,17.80
2019-06-07T09:32:27.991Z,18.10
2019-06-07T09:35:00.659Z,18.40
2019-06-07T09:40:05.662Z,18.80
2019-06-07T09:42:31.423Z,19.00
2019-06-07T09:45:03.801Z,19.20
2019-06-07T09:47:33.030Z,19.40
2019-06-07T09:50:05.989Z,19.50
2019-06-07T09:52:56.568Z,19.50
2019-06-07T09:55:20.637Z,19.30
2019-06-07T09:57:37.025Z,19.20
2019-06-07T10:00:37.032Z,19.30
2019-06-07T10:12:43.557Z,19.70
2019-06-07T10:15:13.001Z,19.70
2019-06-07T10:17:42.230Z,19.70
2019-06-07T10:20:12.096Z,19.70
2019-06-07T10:22:41.463Z,19.80
2019-06-07T10:25:11.129Z,19.80
2019-06-07T10:27:42.973Z,20.00
2019-06-07T10:30:12.534Z,20.00
2019-06-07T10:32:41.796Z,19.90
2019-06-07T10:35:15.294Z,19.90
2019-06-07T10:37:42.278Z,20.00
2019-06-07T10:40:11.570Z,20.00
2019-06-07T10:42:40.772Z,20.10
2019-06-07T10:52:39.675Z,20.70
2019-06-07T10:55:10.564Z,20.70
2019-06-07T10:57:40.735Z,20.70
2019-06-07T11:00:11.698Z,20.80
2019-06-07T11:02:41.451Z,20.90
2019-06-07T11:05:12.310Z,21.00
2019-06-07T11:07:41.859Z,21.00
2019-06-07T11:10:16.814Z,21.10
2019-06-07T11:12:42.032Z,21.20
2019-06-07T11:15:13.050Z,21.30
2019-06-07T11:17:42.384Z,21.40
2019-06-07T11:20:12.383Z,21.40
2019-06-07T11:22:42.034Z,21.50
2019-06-07T11:25:12.833Z,21.60
2019-06-07T11:27:42.315Z,21.60
2019-06-07T11:30:12.595Z,21.60
2019-06-07T11:32:41.939Z,21.60
2019-06-07T11:35:13.522Z,21.70
2019-06-07T11:37:42.508Z,21.70
2019-06-07T11:40:35.637Z,21.70
2019-06-07T11:42:43.566Z,21.80
2019-06-07T11:45:15.249Z,21.90
2019-06-07T11:47:43.927Z,22.00
2019-06-07T11:50:13.768Z,22.20
2019-06-07T11:52:46.282Z,22.20
2019-06-07T11:55:15.846Z,22.30
2019-06-07T11:57:45.246Z,22.30
2019-06-07T12:00:17.946Z,22.40
2019-06-07T12:02:47.320Z,22.40
2019-06-07T12:05:19.817Z,22.50
2019-06-07T12:07:47.776Z,22.60
2019-06-07T12:10:21.188Z,22.70
2019-06-07T12:12:48.168Z,22.70
2019-06-07T12:15:19.155Z,22.80
2019-06-07T12:17:48.635Z,23.00
2019-06-07T12:20:20.461Z,23.10
2019-06-07T12:22:49.314Z,23.30
2019-06-07T12:25:22.609Z,23.40
2019-06-07T12:27:49.526Z,23.50
2019-06-07T12:30:26.005Z,23.50
2019-06-07T12:32:50.122Z,23.60
2019-06-07T12:35:19.979Z,23.60
2019-06-07T12:37:49.330Z,23.50
2019-06-07T12:40:27.631Z,23.50
2019-06-07T12:42:50.022Z,23.60
2019-06-07T12:45:41.234Z,23.60
2019-06-07T12:47:50.535Z,23.70
2019-06-07T12:50:19.905Z,23.80
2019-06-07T12:52:49.112Z,23.80
2019-06-07T12:55:20.352Z,23.90
2019-06-07T13:25:18.288Z,24.70
2019-06-07T13:27:47.676Z,24.80
2019-06-07T13:30:18.810Z,24.80
2019-06-07T13:32:48.199Z,24.80
2019-06-07T13:35:18.914Z,24.80
2019-06-07T13:37:49.118Z,24.80
2019-06-07T13:40:19.689Z,24.80
2019-06-07T13:42:49.235Z,24.90
2019-06-07T13:45:20.019Z,24.90
2019-06-07T13:47:49.416Z,25.00
2019-06-07T13:52:48.899Z,25.10
2019-06-07T13:55:19.833Z,25.20
2019-06-07T13:57:49.369Z,25.20
2019-06-07T14:00:19.445Z,25.30
2019-06-07T14:02:49.774Z,25.30
2019-06-07T14:05:18.999Z,25.40
2019-06-07T14:07:48.223Z,25.50
2019-06-07T14:10:17.520Z,25.60
2019-06-07T14:12:46.727Z,25.60
2019-06-07T14:15:16.118Z,25.70
2019-06-07T14:17:45.355Z,25.80
2019-06-07T14:20:14.939Z,25.90
2019-06-07T14:22:45.056Z,25.90
2019-06-07T14:25:14.431Z,26.00
2019-06-07T14:27:46.081Z,26.10
2019-06-07T14:30:15.777Z,26.10
2019-06-07T14:32:46.059Z,26.20
2019-06-07T14:35:15.660Z,26.30
2019-06-07T14:37:44.866Z,26.30
2019-06-07T14:40:14.267Z,26.40
2019-06-07T14:42:43.466Z,26.50
2019-06-07T14:47:42.573Z,26.80
2019-06-07T14:50:12.938Z,26.90
2019-06-07T14:52:42.149Z,27.00
2019-06-07T14:55:11.794Z,27.20
2019-06-07T14:57:41.019Z,27.30
2019-06-07T15:00:12.363Z,27.40
2019-06-07T15:02:41.782Z,27.50
2019-06-07T15:05:12.876Z,27.50
2019-06-07T15:07:42.171Z,27.50
2019-06-07T15:10:11.617Z,27.60
2019-06-07T15:12:40.861Z,27.60
2019-06-07T15:15:10.819Z,27.70
2019-06-07T15:17:41.671Z,27.60
2019-06-07T15:20:10.991Z,27.60
2019-06-07T15:22:40.212Z,27.50
2019-06-07T15:25:09.807Z,27.50
2019-06-07T15:27:39.062Z,27.40
2019-06-07T15:30:10.343Z,27.30
2019-06-07T15:32:40.339Z,27.30
2019-06-07T15:36:39.982Z,27.20
2019-06-07T15:39:09.178Z,27.10
2019-06-07T15:41:39.709Z,27.00
2019-06-07T15:44:09.364Z,27.00
2019-06-07T15:46:40.146Z,26.80
2019-06-07T15:49:09.614Z,26.80
2019-06-07T15:51:38.839Z,26.60
2019-06-07T15:54:08.113Z,26.60
2019-06-07T15:56:37.404Z,26.50
2019-06-07T15:59:06.627Z,26.40
2019-06-07T16:01:37.420Z,26.40
2019-06-07T16:04:07.996Z,26.30
2019-06-07T16:06:38.315Z,26.30
2019-06-07T16:09:08.074Z,26.20
2019-06-07T16:11:39.060Z,26.10
2019-06-07T16:14:08.499Z,26.00
2019-06-07T16:16:38.929Z,25.90
2019-06-07T16:21:39.487Z,25.30
2019-06-07T16:24:08.823Z,25.30
2019-06-07T16:26:38.207Z,25.20
2019-06-07T16:29:07.467Z,25.50
2019-06-07T16:31:36.668Z,25.80
2019-06-07T16:34:05.908Z,25.90
2019-06-07T16:36:36.102Z,26.10
2019-06-07T16:39:08.387Z,26.20
2019-06-07T16:41:38.385Z,26.20
2019-06-07T16:44:07.645Z,25.90
2019-06-07T16:46:36.877Z,25.50
2019-06-07T16:49:06.117Z,25.10
2019-06-07T16:51:35.315Z,24.40
2019-06-07T19:45:31.770Z,16.50
2019-06-07T19:48:02.676Z,16.50
2019-06-07T19:50:32.275Z,16.30
